PWSweather.com
Personal Weather Stations
Station Observations
INORDPAS37
Bondues, BonduesFR 59910

BonduesBonduesFR 59910

Lat: 50.7, Lon: 3.09

Elevation: 102

Station Type: Netatmo

http://bondues.meteoamikuze.com

High Low Average
Temperature 38.3°F3.5°C 32.2°F0.1°C 35.7°F2.1°C
Dew Point 28.0°F-2.2°C 21.4°F-5.9°C 25.1°F-3.8°C
Winds 3.1 mph 5.0 kmh 1.3 mph 2.1 kmh 2.0 mph S3.2 kmh S
Wind Gusts 9.8 mph15.8 kmh 3.1 mph5.0 kmh 6.0 mph9.7 kmh
Humidity 73% 67% 71%
Pressure 30.20 in1022.7 mb 30.02 in1016.6 mb -
Precipitation 0.09 in2.3 mm - -
Hour Temp Dew Point Humidity Winds Wind Gusts Pressure Precip Precip Rate Daily Precip Total
12:01 AM 36.7°F2.6°C 24.6°F-4.1°C 67% 2.5 mph S4.0 kmh S 4.9 mph7.9 kmh 30.20 in1022.7 mb 0.00 in0.0 mm 0.00 in0.0 mm 0.00 in0.0 mm
12:21 AM 36.3°F2.4°C 24.4°F-4.2°C 67% 2.5 mph S4.0 kmh S 6.9 mph11.1 kmh 30.20 in1022.7 mb 0.00 in0.0 mm 0.00 in0.0 mm 0.00 in0.0 mm
12:42 AM 36.1°F2.3°C 24.3°F-4.3°C 67% 1.8 mph S2.9 kmh S 6.9 mph11.1 kmh 30.20 in1022.7 mb 0.00 in0.0 mm 0.00 in0.0 mm 0.00 in0.0 mm
01:01 AM 36.0°F2.2°C 24.1°F-4.4°C 67% 3.1 mph SSE5.0 kmh SSE 8.1 mph13.0 kmh 30.19 in1022.4 mb 0.00 in0.0 mm 0.00 in0.0 mm 0.00 in0.0 mm
01:22 AM 35.6°F2.0°C 23.7°F-4.6°C 67% 1.8 mph SSW2.9 kmh SSW 3.8 mph6.1 kmh 30.20 in1022.7 mb 0.00 in0.0 mm 0.00 in0.0 mm 0.00 in0.0 mm
01:41 AM 35.2°F1.8°C 23.4°F-4.8°C 67% 1.8 mph SSW2.9 kmh SSW 3.8 mph6.1 kmh 30.19 in1022.4 mb 0.00 in0.0 mm 0.00 in0.0 mm 0.00 in0.0 mm
02:02 AM 34.9°F1.6°C 23.0°F-5.0°C 67% 1.8 mph S2.9 kmh S 6.9 mph11.1 kmh 30.19 in1022.4 mb 0.00 in0.0 mm 0.00 in0.0 mm 0.00 in0.0 mm
02:22 AM 34.5°F1.4°C 23.0°F-5.0°C 68% 2.5 mph S4.0 kmh S 5.6 mph9.0 kmh 30.19 in1022.4 mb 0.00 in0.0 mm 0.00 in0.0 mm 0.00 in0.0 mm
02:42 AM 34.3°F1.3°C 22.8°F-5.1°C 68% 1.8 mph S2.9 kmh S 3.8 mph6.1 kmh 30.18 in1022.0 mb 0.00 in0.0 mm 0.00 in0.0 mm 0.00 in0.0 mm
03:03 AM 34.2°F1.2°C 22.6°F-5.2°C 68% 2.5 mph S4.0 kmh S 4.9 mph7.9 kmh 30.17 in1021.7 mb 0.00 in0.0 mm 0.00 in0.0 mm 0.00 in0.0 mm
03:23 AM 33.8°F1.0°C 22.3°F-5.4°C 68% 2.5 mph S4.0 kmh S 5.6 mph9.0 kmh 30.17 in1021.7 mb 0.00 in0.0 mm 0.00 in0.0 mm 0.00 in0.0 mm
03:44 AM 33.4°F0.8°C 22.3°F-5.4°C 69% 2.5 mph S4.0 kmh S 6.9 mph11.1 kmh 30.16 in1021.3 mb 0.00 in0.0 mm 0.00 in0.0 mm 0.00 in0.0 mm
04:05 AM 33.1°F0.6°C 21.9°F-5.6°C 69% 1.8 mph S2.9 kmh S 9.8 mph15.8 kmh 30.16 in1021.3 mb 0.00 in0.0 mm 0.00 in0.0 mm 0.00 in0.0 mm
04:25 AM 32.9°F0.5°C 21.7°F-5.7°C 69% 1.8 mph S2.9 kmh S 4.9 mph7.9 kmh 30.16 in1021.3 mb 0.00 in0.0 mm 0.00 in0.0 mm 0.00 in0.0 mm
04:45 AM 32.7°F0.4°C 21.6°F-5.8°C 69% 2.5 mph S4.0 kmh S 5.6 mph9.0 kmh 30.15 in1021.0 mb 0.00 in0.0 mm 0.00 in0.0 mm 0.00 in0.0 mm
05:06 AM 32.7°F0.4°C 21.6°F-5.8°C 69% 2.5 mph S4.0 kmh S 6.9 mph11.1 kmh 30.14 in1020.7 mb 0.00 in0.0 mm 0.00 in0.0 mm 0.00 in0.0 mm
05:25 AM 32.5°F0.3°C 21.4°F-5.9°C 69% 2.5 mph S4.0 kmh S 4.9 mph7.9 kmh 30.14 in1020.7 mb 0.00 in0.0 mm 0.00 in0.0 mm 0.00 in0.0 mm
05:46 AM 32.5°F0.3°C 21.7°F-5.7°C 70% 2.5 mph S4.0 kmh S 5.6 mph9.0 kmh 30.14 in1020.7 mb 0.00 in0.0 mm 0.00 in0.0 mm 0.00 in0.0 mm
06:05 AM 32.4°F0.2°C 21.7°F-5.7°C 70% 2.5 mph S4.0 kmh S 5.6 mph9.0 kmh 30.14 in1020.7 mb 0.00 in0.0 mm 0.00 in0.0 mm 0.00 in0.0 mm
06:26 AM 32.2°F0.1°C 21.6°F-5.8°C 70% 2.5 mph S4.0 kmh S 8.7 mph14.0 kmh 30.14 in1020.7 mb 0.00 in0.0 mm 0.00 in0.0 mm 0.00 in0.0 mm
06:46 AM 32.2°F0.1°C 21.6°F-5.8°C 70% 2.5 mph S4.0 kmh S 4.9 mph7.9 kmh 30.14 in1020.7 mb 0.00 in0.0 mm 0.00 in0.0 mm 0.00 in0.0 mm
07:15 AM 32.2°F0.1°C 21.6°F-5.8°C 70% 2.5 mph S4.0 kmh S 4.9 mph7.9 kmh 30.14 in1020.7 mb 0.00 in0.0 mm 0.00 in0.0 mm 0.00 in0.0 mm
07:35 AM 32.2°F0.1°C 21.6°F-5.8°C 70% 2.5 mph S4.0 kmh S 6.9 mph11.1 kmh 30.14 in1020.7 mb 0.00 in0.0 mm 0.00 in0.0 mm 0.00 in0.0 mm
07:55 AM 32.2°F0.1°C 21.6°F-5.8°C 70% 2.5 mph S4.0 kmh S 5.6 mph9.0 kmh 30.14 in1020.7 mb 0.00 in0.0 mm 0.00 in0.0 mm 0.00 in0.0 mm
08:15 AM 32.4°F0.2°C 22.1°F-5.5°C 71% 2.5 mph SSW4.0 kmh SSW 4.9 mph7.9 kmh 30.12 in1020.0 mb 0.00 in0.0 mm 0.00 in0.0 mm 0.00 in0.0 mm
08:35 AM 32.4°F0.2°C 22.1°F-5.5°C 71% 2.5 mph S4.0 kmh S 5.6 mph9.0 kmh 30.13 in1020.3 mb 0.00 in0.0 mm 0.00 in0.0 mm 0.00 in0.0 mm
08:55 AM 32.5°F0.3°C 21.7°F-5.7°C 70% 1.8 mph S2.9 kmh S 7.4 mph11.9 kmh 30.13 in1020.3 mb 0.00 in0.0 mm 0.00 in0.0 mm 0.00 in0.0 mm
09:01 AM 32.7°F0.4°C 22.3°F-5.4°C 71% 3.1 mph S5.0 kmh S 6.9 mph11.1 kmh 30.13 in1020.3 mb 0.00 in0.0 mm 0.00 in0.0 mm 0.00 in0.0 mm
09:35 AM 32.9°F0.5°C 22.5°F-5.3°C 71% 1.8 mph S2.9 kmh S 4.9 mph7.9 kmh 30.13 in1020.3 mb 0.00 in0.0 mm 0.00 in0.0 mm 0.00 in0.0 mm
09:41 AM 33.3°F0.7°C 22.8°F-5.1°C 71% 3.1 mph S5.0 kmh S 5.6 mph9.0 kmh 30.12 in1020.0 mb 0.00 in0.0 mm 0.00 in0.0 mm 0.00 in0.0 mm
10:01 AM 33.4°F0.8°C 23.0°F-5.0°C 71% 3.1 mph S5.0 kmh S 7.4 mph11.9 kmh 30.12 in1020.0 mb 0.00 in0.0 mm 0.00 in0.0 mm 0.00 in0.0 mm
10:21 AM 33.8°F1.0°C 23.4°F-4.8°C 71% 2.5 mph S4.0 kmh S 4.9 mph7.9 kmh 30.12 in1020.0 mb 0.00 in0.0 mm 0.00 in0.0 mm 0.00 in0.0 mm
10:41 AM 34.2°F1.2°C 23.7°F-4.6°C 71% 3.1 mph S5.0 kmh S 7.4 mph11.9 kmh 30.11 in1019.6 mb 0.00 in0.0 mm 0.00 in0.0 mm 0.00 in0.0 mm
11:01 AM 34.3°F1.3°C 23.9°F-4.5°C 71% 2.5 mph S4.0 kmh S 6.9 mph11.1 kmh 30.12 in1020.0 mb 0.00 in0.0 mm 0.00 in0.0 mm 0.00 in0.0 mm
11:21 AM 34.9°F1.6°C 24.4°F-4.2°C 71% 2.5 mph S4.0 kmh S 5.6 mph9.0 kmh 30.11 in1019.6 mb 0.00 in0.0 mm 0.01 in0.3 mm 0.00 in0.0 mm
11:42 AM 35.4°F1.9°C 25.0°F-3.9°C 71% 2.5 mph S4.0 kmh S 5.6 mph9.0 kmh 30.11 in1019.6 mb 0.00 in0.0 mm 0.00 in0.0 mm 0.00 in0.0 mm
12:02 PM 35.8°F2.1°C 25.3°F-3.7°C 71% 2.5 mph S4.0 kmh S 5.6 mph9.0 kmh 30.10 in1019.3 mb 0.00 in0.0 mm 0.00 in0.0 mm 0.00 in0.0 mm
12:22 PM 36.3°F2.4°C 25.9°F-3.4°C 71% 2.5 mph S4.0 kmh S 5.6 mph9.0 kmh 30.09 in1019.0 mb 0.00 in0.0 mm 0.00 in0.0 mm 0.00 in0.0 mm
12:42 PM 37.0°F2.8°C 26.4°F-3.1°C 71% 2.5 mph SSW4.0 kmh SSW 8.7 mph14.0 kmh 30.10 in1019.3 mb 0.00 in0.0 mm 0.00 in0.0 mm 0.00 in0.0 mm
01:02 PM 37.4°F3.0°C 26.8°F-2.9°C 71% 2.5 mph S4.0 kmh S 6.9 mph11.1 kmh 30.09 in1019.0 mb 0.00 in0.0 mm 0.00 in0.0 mm 0.00 in0.0 mm
01:23 PM 37.9°F3.3°C 27.3°F-2.6°C 71% 3.1 mph S5.0 kmh S 7.4 mph11.9 kmh 30.08 in1018.6 mb 0.00 in0.0 mm 0.01 in0.3 mm 0.01 in0.3 mm
01:42 PM 38.1°F3.4°C 27.5°F-2.5°C 71% 2.5 mph S4.0 kmh S 4.9 mph7.9 kmh 30.08 in1018.6 mb 0.00 in0.0 mm 0.00 in0.0 mm 0.01 in0.3 mm
02:03 PM 37.9°F3.3°C 27.3°F-2.6°C 71% 3.1 mph S5.0 kmh S 6.9 mph11.1 kmh 30.08 in1018.6 mb 0.01 in0.3 mm 0.01 in0.3 mm 0.01 in0.3 mm
02:21 PM 37.9°F3.3°C 27.3°F-2.6°C 71% 2.5 mph S4.0 kmh S 4.3 mph6.9 kmh 30.07 in1018.3 mb 0.01 in0.3 mm 0.01 in0.3 mm 0.02 in0.5 mm
02:41 PM 37.9°F3.3°C 27.3°F-2.6°C 71% 1.8 mph S2.9 kmh S 4.3 mph6.9 kmh 30.07 in1018.3 mb 0.02 in0.5 mm 0.02 in0.5 mm 0.03 in0.8 mm
03:01 PM 37.9°F3.3°C 27.3°F-2.6°C 71% 1.8 mph SSW2.9 kmh SSW 3.8 mph6.1 kmh 30.07 in1018.3 mb 0.02 in0.5 mm 0.00 in0.0 mm 0.03 in0.8 mm
03:21 PM 37.9°F3.3°C 27.3°F-2.6°C 71% 2.5 mph S4.0 kmh S 7.4 mph11.9 kmh 30.06 in1017.9 mb 0.02 in0.5 mm 0.00 in0.0 mm 0.04 in1.0 mm
03:41 PM 38.1°F3.4°C 27.5°F-2.5°C 71% 1.8 mph SSW2.9 kmh SSW 5.6 mph9.0 kmh 30.06 in1017.9 mb 0.01 in0.3 mm 0.00 in0.0 mm 0.04 in1.0 mm
04:01 PM 38.1°F3.4°C 27.5°F-2.5°C 71% 1.8 mph S2.9 kmh S 3.8 mph6.1 kmh 30.06 in1017.9 mb 0.01 in0.3 mm 0.00 in0.0 mm 0.05 in1.3 mm
04:21 PM 38.1°F3.4°C 27.5°F-2.5°C 71% 1.8 mph S2.9 kmh S 5.6 mph9.0 kmh 30.06 in1017.9 mb 0.01 in0.3 mm 0.00 in0.0 mm 0.05 in1.3 mm
04:42 PM 38.3°F3.5°C 28.0°F-2.2°C 72% 1.8 mph S2.9 kmh S 4.9 mph7.9 kmh 30.05 in1017.6 mb 0.01 in0.3 mm 0.00 in0.0 mm 0.06 in1.5 mm
05:02 PM 38.3°F3.5°C 28.0°F-2.2°C 72% 1.8 mph S2.9 kmh S 5.6 mph9.0 kmh 30.04 in1017.3 mb 0.01 in0.3 mm 0.00 in0.0 mm 0.06 in1.5 mm
05:22 PM 38.3°F3.5°C 28.0°F-2.2°C 72% 2.5 mph S4.0 kmh S 4.9 mph7.9 kmh 30.03 in1016.9 mb 0.01 in0.3 mm 0.00 in0.0 mm 0.06 in1.5 mm
05:43 PM 38.3°F3.5°C 28.0°F-2.2°C 72% 2.5 mph S4.0 kmh S 6.9 mph11.1 kmh 30.04 in1017.3 mb 0.01 in0.3 mm 0.00 in0.0 mm 0.06 in1.5 mm
06:03 PM 38.3°F3.5°C 28.0°F-2.2°C 72% 1.8 mph S2.9 kmh S 4.3 mph6.9 kmh 30.04 in1017.3 mb 0.01 in0.3 mm 0.00 in0.0 mm 0.07 in1.8 mm
06:23 PM 38.3°F3.5°C 28.0°F-2.2°C 72% 1.8 mph S2.9 kmh S 3.8 mph6.1 kmh 30.03 in1016.9 mb 0.01 in0.3 mm 0.00 in0.0 mm 0.07 in1.8 mm
06:43 PM 38.1°F3.4°C 27.9°F-2.3°C 72% 1.8 mph S2.9 kmh S 4.9 mph7.9 kmh 30.04 in1017.3 mb 0.01 in0.3 mm 0.00 in0.0 mm 0.07 in1.8 mm
07:03 PM 37.9°F3.3°C 27.7°F-2.4°C 72% 1.8 mph S2.9 kmh S 4.3 mph6.9 kmh 30.04 in1017.3 mb 0.01 in0.3 mm 0.00 in0.0 mm 0.08 in2.0 mm
07:23 PM 37.9°F3.3°C 27.7°F-2.4°C 72% 1.8 mph S2.9 kmh S 3.8 mph6.1 kmh 30.04 in1017.3 mb 0.00 in0.0 mm 0.00 in0.0 mm 0.08 in2.0 mm
07:43 PM 37.9°F3.3°C 27.7°F-2.4°C 72% 1.8 mph S2.9 kmh S 4.3 mph6.9 kmh 30.03 in1016.9 mb 0.01 in0.3 mm 0.01 in0.3 mm 0.08 in2.0 mm
08:04 PM 37.8°F3.2°C 27.9°F-2.3°C 73% 2.5 mph SSE4.0 kmh SSE 4.9 mph7.9 kmh 30.04 in1017.3 mb 0.01 in0.3 mm 0.00 in0.0 mm 0.08 in2.0 mm
08:26 PM 37.6°F3.1°C 27.7°F-2.4°C 73% 2.5 mph S4.0 kmh S 5.6 mph9.0 kmh 30.03 in1016.9 mb 0.01 in0.3 mm 0.00 in0.0 mm 0.08 in2.0 mm
08:46 PM 37.4°F3.0°C 27.5°F-2.5°C 73% 2.5 mph SSE4.0 kmh SSE 7.4 mph11.9 kmh 30.03 in1016.9 mb 0.01 in0.3 mm 0.00 in0.0 mm 0.09 in2.3 mm
09:07 PM 37.4°F3.0°C 27.5°F-2.5°C 73% 3.1 mph SSE5.0 kmh SSE 4.9 mph7.9 kmh 30.03 in1016.9 mb 0.00 in0.0 mm 0.00 in0.0 mm 0.09 in2.3 mm
09:27 PM 37.4°F3.0°C 27.5°F-2.5°C 73% 1.8 mph S2.9 kmh S 4.3 mph6.9 kmh 30.04 in1017.3 mb 0.00 in0.0 mm 0.00 in0.0 mm 0.09 in2.3 mm
09:47 PM 37.4°F3.0°C 27.5°F-2.5°C 73% 1.8 mph S2.9 kmh S 3.1 mph5.0 kmh 30.03 in1016.9 mb 0.00 in0.0 mm 0.00 in0.0 mm 0.09 in2.3 mm
10:07 PM 37.2°F2.9°C 27.3°F-2.6°C 73% 3.1 mph SSE5.0 kmh SSE 5.6 mph9.0 kmh 30.03 in1016.9 mb 0.00 in0.0 mm 0.00 in0.0 mm 0.09 in2.3 mm
10:28 PM 37.2°F2.9°C 27.3°F-2.6°C 73% 2.5 mph S4.0 kmh S 5.6 mph9.0 kmh 30.02 in1016.6 mb 0.00 in0.0 mm 0.00 in0.0 mm 0.09 in2.3 mm
10:48 PM 37.2°F2.9°C 27.3°F-2.6°C 73% 1.8 mph SE2.9 kmh SE 4.3 mph6.9 kmh 30.03 in1016.9 mb 0.00 in0.0 mm 0.00 in0.0 mm 0.09 in2.3 mm
11:08 PM 37.0°F2.8°C 27.3°F-2.6°C 73% 1.3 mph S2.1 kmh S 3.8 mph6.1 kmh 30.03 in1016.9 mb 0.00 in0.0 mm 0.00 in0.0 mm 0.09 in2.3 mm
11:29 PM 37.0°F2.8°C 27.3°F-2.6°C 73% 1.8 mph SSE2.9 kmh SSE 4.3 mph6.9 kmh 30.02 in1016.6 mb 0.00 in0.0 mm 0.00 in0.0 mm 0.09 in2.3 mm
11:49 PM 37.0°F2.8°C 27.3°F-2.6°C 73% 1.3 mph SE2.1 kmh SE 3.8 mph6.1 kmh 30.03 in1016.9 mb 0.00 in0.0 mm 0.00 in0.0 mm 0.09 in2.3 mm